createdAt,value
2022-07-29T00:02:14.006Z,56.39
2022-07-29T00:04:42.646Z,56.58
2022-07-29T00:07:11.578Z,57.55
2022-07-29T00:09:50.913Z,56.34
2022-07-29T00:12:26.125Z,56.86
2022-07-29T00:14:57.550Z,58.05
2022-07-29T00:17:26.592Z,58.12
2022-07-29T00:19:55.172Z,57.40
2022-07-29T00:22:23.827Z,57.15
2022-07-29T00:24:52.649Z,58.53
2022-07-29T00:27:21.204Z,57.96
2022-07-29T00:29:49.831Z,58.32
2022-07-29T00:32:18.326Z,58.93
2022-07-29T00:35:07.015Z,58.10
2022-07-29T00:37:35.587Z,58.42
2022-07-29T00:40:05.410Z,58.42
2022-07-29T00:42:53.435Z,59.54
2022-07-29T00:45:23.341Z,59.12
2022-07-29T00:47:52.018Z,58.26
2022-07-29T00:50:20.878Z,58.65
2022-07-29T00:52:49.771Z,60.02
2022-07-29T00:55:19.101Z,60.75
2022-07-29T00:57:48.469Z,60.29
2022-07-29T01:00:27.252Z,60.07
2022-07-29T01:02:55.933Z,61.21
2022-07-29T01:05:49.883Z,61.42
2022-07-29T01:08:19.221Z,62.34
2022-07-29T01:10:48.783Z,62.89
2022-07-29T01:13:18.405Z,62.33
2022-07-29T01:16:02.763Z,62.65
2022-07-29T01:18:43.642Z,62.40
2022-07-29T01:21:39.491Z,62.66
2022-07-29T01:25:01.592Z,63.08
2022-07-29T01:28:06.686Z,63.11
2022-07-29T01:30:40.826Z,64.06
2022-07-29T01:33:36.949Z,63.90
2022-07-29T01:36:18.715Z,64.50
2022-07-29T01:39:07.900Z,65.74
2022-07-29T01:41:44.672Z,65.68
2022-07-29T01:44:28.065Z,66.03
2022-07-29T01:47:07.271Z,65.53
2022-07-29T01:49:44.483Z,65.41
2022-07-29T01:52:43.460Z,66.40
2022-07-29T01:55:17.741Z,66.17
2022-07-29T01:57:50.844Z,66.96
2022-07-29T02:00:19.401Z,66.93
2022-07-29T02:02:50.542Z,65.87
2022-07-29T02:05:23.407Z,67.12
2022-07-29T02:07:54.757Z,66.78
2022-07-29T02:10:29.816Z,67.09
2022-07-29T02:13:00.028Z,66.45
2022-07-29T02:15:33.941Z,67.64
2022-07-29T02:18:19.231Z,67.07
2022-07-29T02:20:54.762Z,67.80
2022-07-29T02:23:25.566Z,67.93
2022-07-29T02:25:58.473Z,67.81
2022-07-29T02:28:32.779Z,68.47
2022-07-29T02:31:04.810Z,69.58
2022-07-29T02:33:34.066Z,67.09
2022-07-29T02:36:04.151Z,65.76
2022-07-29T02:38:52.155Z,68.07
2022-07-29T02:41:37.408Z,68.73
2022-07-29T02:44:17.786Z,67.47
2022-07-29T02:47:07.044Z,69.15
2022-07-29T02:50:06.267Z,69.56
2022-07-29T02:53:01.235Z,69.46
2022-07-29T02:55:56.870Z,69.07
2022-07-29T02:58:46.537Z,69.36
2022-07-29T03:01:22.951Z,70.43
2022-07-29T03:03:55.847Z,70.48
2022-07-29T03:06:38.005Z,70.89
2022-07-29T03:09:13.386Z,69.95
2022-07-29T03:11:49.783Z,69.56
2022-07-29T03:14:21.567Z,69.15
2022-07-29T03:16:52.339Z,69.65
2022-07-29T03:19:21.745Z,70.84
2022-07-29T03:21:50.030Z,68.54
2022-07-29T03:24:36.462Z,69.61
2022-07-29T03:27:06.577Z,69.86
2022-07-29T03:29:35.920Z,71.22
2022-07-29T03:32:08.310Z,70.70
2022-07-29T03:34:39.261Z,71.12
2022-07-29T03:37:08.167Z,71.68
2022-07-29T03:39:42.990Z,71.95
2022-07-29T03:42:16.584Z,71.50
2022-07-29T03:44:49.713Z,71.07
2022-07-29T03:47:43.580Z,69.98
2022-07-29T03:50:17.805Z,68.98
2022-07-29T03:52:48.571Z,68.53
2022-07-29T03:55:18.175Z,68.57
2022-07-29T03:57:48.563Z,69.88
2022-07-29T04:00:17.811Z,69.51
2022-07-29T04:02:49.813Z,70.03
2022-07-29T04:05:20.331Z,70.17
2022-07-29T04:07:49.989Z,68.92
2022-07-29T04:10:30.176Z,67.89
2022-07-29T04:13:01.714Z,69.42
2022-07-29T04:15:31.175Z,67.78
2022-07-29T04:18:01.011Z,66.84
2022-07-29T04:20:30.656Z,67.35
2022-07-29T04:23:00.094Z,66.66
2022-07-29T04:25:29.670Z,67.34
2022-07-29T04:28:01.297Z,66.48
2022-07-29T04:30:32.182Z,66.16
2022-07-29T04:33:03.329Z,67.07
2022-07-29T04:35:45.694Z,66.07
2022-07-29T04:38:19.300Z,65.82
2022-07-29T04:40:50.565Z,65.79
2022-07-29T04:43:22.560Z,66.04
2022-07-29T04:45:52.161Z,65.30
2022-07-29T04:48:25.305Z,65.10
2022-07-29T04:50:58.160Z,64.21
2022-07-29T04:53:27.411Z,64.70
2022-07-29T04:55:56.266Z,64.07
2022-07-29T04:58:24.756Z,63.64
2022-07-29T05:00:53.405Z,64.03
2022-07-29T05:03:22.050Z,64.47
2022-07-29T05:05:51.532Z,64.84
2022-07-29T05:08:20.213Z,65.21
2022-07-29T05:10:49.086Z,63.23
2022-07-29T05:13:17.646Z,64.41
2022-07-29T05:15:46.393Z,62.23
2022-07-29T05:18:15.271Z,63.41
2022-07-29T05:20:44.052Z,62.72
2022-07-29T05:23:13.949Z,61.98
2022-07-29T05:25:44.283Z,60.30
2022-07-29T05:28:13.497Z,60.29
2022-07-29T05:30:42.300Z,60.10
2022-07-29T05:33:35.199Z,59.59
2022-07-29T05:36:01.137Z,58.86
2022-07-29T05:38:30.642Z,58.46
2022-07-29T05:41:00.784Z,58.32
2022-07-29T05:43:30.684Z,57.89
2022-07-29T05:45:59.638Z,57.66
2022-07-29T05:48:28.717Z,57.13
2022-07-29T05:50:57.346Z,56.89
2022-07-29T05:53:25.887Z,56.08
2022-07-29T05:55:54.552Z,55.43
2022-07-29T05:58:23.175Z,54.36
2022-07-29T06:00:52.006Z,54.16
2022-07-29T06:03:20.436Z,53.78
2022-07-29T06:05:49.075Z,53.81
2022-07-29T06:08:18.328Z,52.12
2022-07-29T06:10:47.173Z,51.95
2022-07-29T06:13:17.126Z,51.33
2022-07-29T06:15:45.819Z,52.31
2022-07-29T06:18:15.056Z,51.28
2022-07-29T06:20:44.275Z,51.38
2022-07-29T06:23:12.704Z,50.75
2022-07-29T06:25:42.466Z,50.97
2022-07-29T06:28:12.156Z,50.13
2022-07-29T06:30:41.789Z,50.80
2022-07-29T06:33:10.385Z,50.81
2022-07-29T06:35:41.812Z,51.17
2022-07-29T06:38:31.491Z,51.17
2022-07-29T06:41:01.567Z,50.54
2022-07-29T06:43:50.135Z,50.55
2022-07-29T06:46:22.620Z,49.88
2022-07-29T06:48:53.347Z,48.57
2022-07-29T06:51:24.053Z,48.41
2022-07-29T06:54:00.072Z,47.52
2022-07-29T06:56:38.496Z,46.72
2022-07-29T06:59:10.719Z,46.19
2022-07-29T07:01:43.339Z,46.52
2022-07-29T07:04:14.775Z,45.48
2022-07-29T07:06:43.744Z,44.10
2022-07-29T07:09:12.404Z,43.95
2022-07-29T07:11:41.095Z,42.78
2022-07-29T07:14:09.645Z,43.55
2022-07-29T07:16:38.317Z,42.41
2022-07-29T07:19:06.916Z,41.77
2022-07-29T07:21:36.120Z,42.08
2022-07-29T07:24:05.512Z,42.31
2022-07-29T07:26:34.061Z,40.39
2022-07-29T07:29:02.669Z,40.60
2022-07-29T07:31:31.410Z,41.34
2022-07-29T07:34:00.204Z,39.75
2022-07-29T07:36:28.738Z,39.85
2022-07-29T07:38:57.286Z,40.31
2022-07-29T07:41:25.917Z,40.24
2022-07-29T07:44:00.868Z,40.75
2022-07-29T07:46:29.548Z,40.89
2022-07-29T07:48:58.216Z,38.64
2022-07-29T07:51:26.754Z,38.52
2022-07-29T07:53:55.324Z,38.99
2022-07-29T07:56:26.307Z,40.10
2022-07-29T07:58:55.153Z,39.34
2022-07-29T08:01:24.234Z,38.73
2022-07-29T08:03:52.718Z,38.79
2022-07-29T08:06:21.251Z,38.49
2022-07-29T08:08:49.778Z,37.21
2022-07-29T08:11:18.458Z,37.75
2022-07-29T08:13:48.569Z,37.28
2022-07-29T08:16:17.176Z,36.81
2022-07-29T08:18:47.280Z,36.88
2022-07-29T08:21:17.634Z,36.29
2022-07-29T08:23:57.597Z,35.79
2022-07-29T08:26:28.438Z,36.95
2022-07-29T08:28:57.774Z,36.17
2022-07-29T08:31:27.282Z,36.33
2022-07-29T08:33:57.408Z,35.71
2022-07-29T08:36:28.063Z,35.49
2022-07-29T08:38:56.684Z,34.81
2022-07-29T08:41:25.686Z,35.25
2022-07-29T08:43:54.990Z,36.02
2022-07-29T08:46:24.717Z,35.50
2022-07-29T08:48:54.441Z,34.59
2022-07-29T08:51:23.726Z,35.06
2022-07-29T08:53:52.617Z,34.99
2022-07-29T08:56:22.323Z,35.12
2022-07-29T08:58:52.715Z,34.58
2022-07-29T09:01:35.563Z,34.69
2022-07-29T09:04:11.672Z,33.65
2022-07-29T09:06:47.814Z,35.12
2022-07-29T09:09:17.251Z,34.20
2022-07-29T09:11:46.008Z,34.88
2022-07-29T09:14:16.340Z,34.27
2022-07-29T09:16:57.386Z,33.72
2022-07-29T09:19:38.314Z,32.83
2022-07-29T09:22:13.831Z,32.49
2022-07-29T09:24:47.925Z,31.75
2022-07-29T09:27:26.949Z,31.73
2022-07-29T09:30:14.547Z,32.94
2022-07-29T09:33:04.529Z,33.17
2022-07-29T09:35:33.085Z,32.46
2022-07-29T09:38:15.258Z,31.92
2022-07-29T09:41:05.473Z,30.87
2022-07-29T09:43:35.837Z,31.75
2022-07-29T09:46:15.146Z,31.99
2022-07-29T09:48:43.691Z,30.78
2022-07-29T09:51:26.994Z,32.20
2022-07-29T09:53:58.537Z,29.96
2022-07-29T09:56:43.781Z,29.70
2022-07-29T09:59:13.229Z,30.61
2022-07-29T10:01:42.063Z,30.03
2022-07-29T10:04:11.066Z,30.19
2022-07-29T10:07:05.036Z,30.16
2022-07-29T10:09:35.268Z,28.18
2022-07-29T10:12:16.842Z,28.07
2022-07-29T10:14:45.370Z,28.32
2022-07-29T10:17:19.997Z,27.29
2022-07-29T10:19:50.155Z,27.44
2022-07-29T10:22:36.860Z,27.44
2022-07-29T10:25:08.556Z,27.24
2022-07-29T10:27:38.595Z,27.07
2022-07-29T10:30:09.121Z,26.55
2022-07-29T10:33:15.358Z,27.68
2022-07-29T10:36:37.130Z,27.19
2022-07-29T10:39:44.548Z,27.71
2022-07-29T10:42:34.476Z,26.85
2022-07-29T10:45:05.925Z,28.20
2022-07-29T10:47:35.402Z,27.64
2022-07-29T10:50:11.677Z,27.70
2022-07-29T10:53:00.033Z,28.19
2022-07-29T10:55:45.672Z,26.67
2022-07-29T10:58:19.973Z,27.42
2022-07-29T11:00:56.381Z,27.72
2022-07-29T11:03:59.000Z,28.34
2022-07-29T11:07:05.592Z,26.94
2022-07-29T11:09:37.636Z,27.14
2022-07-29T11:12:40.750Z,27.35
2022-07-29T11:15:21.905Z,28.31
2022-07-29T11:17:59.552Z,27.13
2022-07-29T11:20:49.862Z,26.54
2022-07-29T11:23:36.856Z,25.30
2022-07-29T11:26:26.174Z,26.17
2022-07-29T11:29:23.302Z,27.96
2022-07-29T11:31:57.145Z,26.24
2022-07-29T11:34:31.492Z,26.21
2022-07-29T11:37:10.297Z,26.04
2022-07-29T11:39:55.840Z,26.00
2022-07-29T11:42:32.332Z,25.90
2022-07-29T11:45:43.394Z,26.13
2022-07-29T11:48:31.259Z,26.15
2022-07-29T11:50:59.561Z,27.77
2022-07-29T11:53:29.125Z,26.99
2022-07-29T11:56:03.484Z,27.26
2022-07-29T11:58:32.873Z,27.69
2022-07-29T12:01:04.097Z,26.80
2022-07-29T12:03:36.825Z,26.02
2022-07-29T12:06:18.003Z,27.14
2022-07-29T12:08:47.360Z,26.57
2022-07-29T12:11:23.425Z,27.35
2022-07-29T12:13:53.822Z,26.88
2022-07-29T12:16:25.653Z,26.21
2022-07-29T12:19:05.548Z,26.87
2022-07-29T12:21:56.549Z,26.46
2022-07-29T12:24:27.411Z,26.02
2022-07-29T12:27:02.476Z,26.59
2022-07-29T12:29:34.746Z,27.00
2022-07-29T12:32:14.690Z,25.94
2022-07-29T12:34:48.226Z,26.39
2022-07-29T12:37:17.338Z,26.51
2022-07-29T12:39:46.484Z,26.04
2022-07-29T12:42:19.179Z,26.43
2022-07-29T12:44:52.420Z,26.07
2022-07-29T12:47:21.841Z,26.75
2022-07-29T12:49:52.309Z,26.03
2022-07-29T12:52:33.945Z,26.18
2022-07-29T12:55:04.418Z,26.12
2022-07-29T12:57:37.671Z,25.77
2022-07-29T13:00:14.236Z,25.31
2022-07-29T13:02:44.888Z,25.27
2022-07-29T13:05:13.926Z,26.05
2022-07-29T13:07:55.852Z,25.83
2022-07-29T13:10:26.235Z,26.04
2022-07-29T13:13:11.398Z,27.19
2022-07-29T13:16:08.733Z,26.20
2022-07-29T13:18:37.748Z,26.08
2022-07-29T13:21:18.872Z,26.40
2022-07-29T13:23:47.492Z,26.09
2022-07-29T13:26:20.183Z,26.80
2022-07-29T13:28:48.559Z,25.68
2022-07-29T13:31:16.983Z,25.62
2022-07-29T13:33:45.364Z,26.69
2022-07-29T13:36:13.797Z,26.92
2022-07-29T13:38:42.247Z,25.81
2022-07-29T13:41:12.003Z,25.57
2022-07-29T13:43:40.643Z,25.07
2022-07-29T13:46:09.460Z,24.66
2022-07-29T13:48:38.034Z,26.34
2022-07-29T13:51:06.439Z,25.99
2022-07-29T13:53:34.865Z,25.74
2022-07-29T13:56:03.696Z,25.72
2022-07-29T13:58:32.365Z,25.06
2022-07-29T14:01:01.787Z,25.31
2022-07-29T14:03:30.404Z,25.13
2022-07-29T14:06:01.373Z,26.44
2022-07-29T14:08:29.949Z,25.40
2022-07-29T14:10:58.425Z,25.79
2022-07-29T14:13:26.923Z,25.69
2022-07-29T14:15:55.479Z,25.77
2022-07-29T14:18:23.959Z,25.08
2022-07-29T14:20:52.500Z,26.08
2022-07-29T14:23:21.030Z,26.16
2022-07-29T14:25:49.635Z,25.70
2022-07-29T14:28:18.268Z,27.42
2022-07-29T14:30:46.767Z,26.46
2022-07-29T14:33:16.016Z,26.44
2022-07-29T14:35:46.507Z,26.76
2022-07-29T14:38:15.039Z,26.43
2022-07-29T14:40:43.430Z,26.25
2022-07-29T14:43:11.929Z,26.56
2022-07-29T14:45:41.398Z,25.92
2022-07-29T14:48:11.070Z,26.41
2022-07-29T14:50:39.907Z,26.38
2022-07-29T14:53:08.440Z,26.78
2022-07-29T14:55:37.095Z,28.18
2022-07-29T14:58:10.929Z,26.96
2022-07-29T15:00:40.814Z,26.88
2022-07-29T15:03:12.200Z,26.96
2022-07-29T15:05:40.628Z,27.59
2022-07-29T15:08:09.337Z,27.75
2022-07-29T15:10:37.857Z,26.80
2022-07-29T15:13:06.445Z,26.87
2022-07-29T15:15:35.077Z,28.13
2022-07-29T15:18:04.001Z,27.72
2022-07-29T15:20:32.729Z,27.77
2022-07-29T15:23:03.669Z,27.56
2022-07-29T15:25:34.083Z,27.00
2022-07-29T15:28:04.070Z,27.43
2022-07-29T15:30:34.459Z,26.74
2022-07-29T15:33:04.725Z,27.28
2022-07-29T15:35:33.672Z,27.64
2022-07-29T15:38:09.557Z,27.09
2022-07-29T15:40:44.711Z,27.88
2022-07-29T15:43:13.427Z,27.44
2022-07-29T15:46:06.807Z,27.16
2022-07-29T15:48:40.243Z,26.52
2022-07-29T15:51:08.907Z,26.59
2022-07-29T15:53:37.464Z,27.21
2022-07-29T15:56:06.232Z,26.69
2022-07-29T15:58:34.655Z,26.66
2022-07-29T16:01:03.177Z,27.30
2022-07-29T16:03:31.746Z,27.41
2022-07-29T16:06:00.349Z,26.56
2022-07-29T16:08:28.868Z,28.15
2022-07-29T16:10:57.460Z,27.76
2022-07-29T16:13:25.874Z,28.05
2022-07-29T16:16:02.036Z,28.32
2022-07-29T16:18:31.635Z,27.93
2022-07-29T16:21:00.209Z,26.95
2022-07-29T16:23:28.706Z,27.06
2022-07-29T16:26:00.133Z,27.69
2022-07-29T16:28:31.004Z,27.02
2022-07-29T16:30:59.878Z,27.98
2022-07-29T16:33:28.791Z,28.42
2022-07-29T16:36:18.847Z,28.20
2022-07-29T16:38:48.142Z,28.67
2022-07-29T16:41:16.732Z,28.90
2022-07-29T16:43:45.323Z,29.57
2022-07-29T16:46:18.835Z,30.52
2022-07-29T16:48:48.862Z,30.15
2022-07-29T16:51:17.399Z,30.92
2022-07-29T16:53:45.970Z,31.43
2022-07-29T16:56:18.743Z,31.51
2022-07-29T16:58:47.396Z,31.39
2022-07-29T17:01:17.301Z,31.27
2022-07-29T17:04:04.078Z,30.86
2022-07-29T17:06:38.203Z,30.81
2022-07-29T17:09:09.893Z,30.68
2022-07-29T17:11:52.882Z,31.79
2022-07-29T17:14:29.460Z,30.93
2022-07-29T17:17:01.988Z,30.95
2022-07-29T17:19:35.590Z,31.90
2022-07-29T17:22:15.496Z,32.47
2022-07-29T17:24:45.496Z,32.55
2022-07-29T17:27:14.893Z,32.80
2022-07-29T17:29:43.762Z,32.31
2022-07-29T17:32:12.620Z,32.67
2022-07-29T17:34:43.156Z,32.56
2022-07-29T17:37:13.042Z,33.38
2022-07-29T17:39:43.242Z,33.52
2022-07-29T17:42:14.708Z,34.55
2022-07-29T17:44:43.423Z,35.11
2022-07-29T17:47:15.934Z,35.32
2022-07-29T17:49:47.407Z,35.33
2022-07-29T17:52:18.493Z,35.22
2022-07-29T17:54:49.309Z,36.98
2022-07-29T17:57:17.899Z,36.15
2022-07-29T17:59:46.515Z,36.54
2022-07-29T18:02:15.108Z,37.30
2022-07-29T18:04:44.546Z,38.23
2022-07-29T18:07:14.137Z,39.45
2022-07-29T18:09:42.843Z,39.33
2022-07-29T18:12:11.669Z,39.96
2022-07-29T18:14:40.237Z,40.70
2022-07-29T18:17:08.870Z,40.49
2022-07-29T18:19:37.541Z,39.52
2022-07-29T18:22:07.550Z,40.69
2022-07-29T18:24:36.229Z,41.01
2022-07-29T18:27:08.243Z,41.17
2022-07-29T18:29:37.027Z,40.87
2022-07-29T18:32:06.518Z,42.09
2022-07-29T18:34:35.228Z,42.07
2022-07-29T18:37:03.796Z,42.55
2022-07-29T18:39:32.255Z,42.57
2022-07-29T18:42:00.825Z,42.28
2022-07-29T18:44:29.419Z,43.31
2022-07-29T18:46:58.429Z,42.59
2022-07-29T18:49:27.843Z,44.82
2022-07-29T18:51:57.263Z,45.63
2022-07-29T18:54:25.838Z,44.74
2022-07-29T18:56:54.409Z,45.62
2022-07-29T18:59:23.259Z,46.06
2022-07-29T19:01:52.176Z,46.22
2022-07-29T19:04:20.956Z,47.82
2022-07-29T19:06:49.815Z,46.83
2022-07-29T19:09:19.258Z,45.07
2022-07-29T19:11:48.985Z,44.21
2022-07-29T19:14:19.565Z,44.84
2022-07-29T19:16:50.980Z,44.28
2022-07-29T19:19:19.933Z,43.82
2022-07-29T19:21:49.339Z,43.10
2022-07-29T19:24:17.768Z,43.00
2022-07-29T19:26:49.313Z,42.30
2022-07-29T19:29:18.194Z,41.69
2022-07-29T19:31:47.183Z,42.02
2022-07-29T19:34:15.723Z,42.54
2022-07-29T19:36:45.148Z,42.59
2022-07-29T19:39:13.721Z,43.26
2022-07-29T19:41:42.435Z,43.90
2022-07-29T19:44:11.692Z,44.68
2022-07-29T19:46:40.579Z,44.28
2022-07-29T19:49:10.285Z,44.80
2022-07-29T19:51:38.891Z,44.97
2022-07-29T19:54:08.605Z,45.04
2022-07-29T19:56:42.254Z,45.35
2022-07-29T19:59:11.024Z,46.48
2022-07-29T20:01:41.005Z,47.69
2022-07-29T20:04:09.678Z,47.10
2022-07-29T20:06:38.261Z,47.57
2022-07-29T20:09:06.887Z,47.79
2022-07-29T20:11:37.192Z,48.61
2022-07-29T20:14:06.690Z,49.91
2022-07-29T20:16:36.084Z,49.88
2022-07-29T20:19:05.507Z,50.48
2022-07-29T20:21:34.127Z,51.49
2022-07-29T20:24:07.664Z,51.37
2022-07-29T20:26:39.161Z,51.95
2022-07-29T20:29:07.944Z,51.97
2022-07-29T20:31:37.041Z,53.00
2022-07-29T20:34:05.905Z,53.21
2022-07-29T20:36:34.545Z,53.48
2022-07-29T20:39:03.534Z,54.14
2022-07-29T20:41:34.022Z,53.25
2022-07-29T20:44:03.915Z,54.20
2022-07-29T20:46:32.955Z,54.82
2022-07-29T20:49:01.723Z,54.40
2022-07-29T20:51:31.076Z,54.49
2022-07-29T20:54:04.829Z,55.51
2022-07-29T20:56:33.530Z,55.89
2022-07-29T20:59:03.290Z,56.13
2022-07-29T21:01:32.012Z,55.90
2022-07-29T21:04:03.210Z,56.00
2022-07-29T21:06:32.831Z,56.78
2022-07-29T21:09:01.604Z,56.78
2022-07-29T21:11:43.777Z,55.27
2022-07-29T21:14:37.304Z,55.58
2022-07-29T21:17:07.538Z,55.96
2022-07-29T21:19:36.223Z,56.77
2022-07-29T21:22:05.023Z,56.71
2022-07-29T21:24:33.748Z,57.22
2022-07-29T21:27:21.985Z,56.86
2022-07-29T21:29:50.700Z,57.93
2022-07-29T21:32:27.332Z,57.97
2022-07-29T21:34:59.277Z,57.50
2022-07-29T21:37:28.248Z,58.06
2022-07-29T21:39:57.266Z,58.42
2022-07-29T21:42:25.978Z,58.31
2022-07-29T21:44:55.079Z,58.04
2022-07-29T21:47:23.700Z,57.94
2022-07-29T21:49:53.087Z,58.25
2022-07-29T21:52:21.664Z,58.51
2022-07-29T21:54:50.485Z,58.98
2022-07-29T21:57:19.063Z,58.91
2022-07-29T21:59:47.649Z,59.31
2022-07-29T22:02:16.256Z,58.97
2022-07-29T22:04:44.825Z,59.49
2022-07-29T22:07:13.375Z,60.60
2022-07-29T22:09:42.008Z,61.88
2022-07-29T22:12:10.804Z,62.56
2022-07-29T22:14:39.413Z,62.75
2022-07-29T22:17:09.218Z,63.85
2022-07-29T22:19:37.830Z,64.86
2022-07-29T22:22:06.356Z,64.03
2022-07-29T22:24:34.887Z,64.92
2022-07-29T22:27:04.022Z,65.30
2022-07-29T22:29:32.647Z,66.02
2022-07-29T22:32:01.348Z,65.61
2022-07-29T22:34:37.125Z,65.69
2022-07-29T22:37:06.851Z,65.64
2022-07-29T22:39:35.560Z,66.11
2022-07-29T22:42:04.587Z,65.91
2022-07-29T22:44:33.288Z,66.86
2022-07-29T22:47:02.297Z,66.94
2022-07-29T22:49:31.332Z,67.07
2022-07-29T22:52:00.513Z,67.44
2022-07-29T22:54:29.191Z,67.61
2022-07-29T22:56:57.923Z,67.82
2022-07-29T22:59:26.826Z,67.51
2022-07-29T23:01:55.465Z,66.78
2022-07-29T23:04:24.061Z,67.36
2022-07-29T23:06:52.705Z,67.09
2022-07-29T23:09:21.302Z,67.63
2022-07-29T23:11:49.890Z,67.82
2022-07-29T23:14:18.484Z,68.18
2022-07-29T23:16:47.026Z,68.31
2022-07-29T23:19:15.649Z,67.75
2022-07-29T23:21:44.261Z,68.22
2022-07-29T23:24:12.884Z,69.34
2022-07-29T23:26:41.531Z,68.51
2022-07-29T23:29:10.506Z,68.43
2022-07-29T23:31:39.455Z,68.78
2022-07-29T23:34:11.244Z,68.63
2022-07-29T23:36:39.830Z,68.56
2022-07-29T23:39:13.445Z,68.24
2022-07-29T23:41:42.786Z,69.06
2022-07-29T23:44:11.279Z,68.23
2022-07-29T23:46:39.898Z,68.47
2022-07-29T23:49:08.619Z,68.66
2022-07-29T23:51:37.123Z,68.01
2022-07-29T23:54:05.696Z,67.57
2022-07-29T23:56:34.215Z,67.69
2022-07-29T23:59:05.679Z,67.76
